sensor_id;sensor_type;location;lat;lon;timestamp;pressure;altitude;pressure_sealevel;temperature;humidity
35778;BME280;21899;42.662;23.316;2023-05-08T00:01:06;94581.31;;;12.75;91.62
35778;BME280;21899;42.662;23.316;2023-05-08T00:03:32;94585.91;;;12.74;92.33
35778;BME280;21899;42.662;23.316;2023-05-08T00:05:57;94595.13;;;12.73;92.24
35778;BME280;21899;42.662;23.316;2023-05-08T00:08:22;94593.25;;;12.70;92.74
35778;BME280;21899;42.662;23.316;2023-05-08T00:10:48;94589.78;;;12.66;92.80
35778;BME280;21899;42.662;23.316;2023-05-08T00:13:14;94586.00;;;12.64;92.64
35778;BME280;21899;42.662;23.316;2023-05-08T00:15:39;94587.91;;;12.60;91.17
35778;BME280;21899;42.662;23.316;2023-05-08T00:18:04;94582.97;;;12.51;92.35
35778;BME280;21899;42.662;23.316;2023-05-08T00:20:30;94600.59;;;12.56;93.64
35778;BME280;21899;42.662;23.316;2023-05-08T00:22:55;94602.50;;;12.55;94.78
35778;BME280;21899;42.662;23.316;2023-05-08T00:25:22;94591.03;;;12.48;95.17
35778;BME280;21899;42.662;23.316;2023-05-08T00:27:47;94609.06;;;12.51;95.53
35778;BME280;21899;42.662;23.316;2023-05-08T00:30:13;94599.84;;;12.48;96.42
35778;BME280;21899;42.662;23.316;2023-05-08T00:32:38;94606.00;;;12.49;97.24
35778;BME280;21899;42.662;23.316;2023-05-08T00:35:04;94602.94;;;12.47;97.11
35778;BME280;21899;42.662;23.316;2023-05-08T00:37:29;94600.66;;;12.38;98.20
35778;BME280;21899;42.662;23.316;2023-05-08T00:39:55;94604.91;;;12.39;98.24
35778;BME280;21899;42.662;23.316;2023-05-08T00:42:20;94602.22;;;12.32;98.56
35778;BME280;21899;42.662;23.316;2023-05-08T00:44:46;94603.75;;;12.33;98.66
35778;BME280;21899;42.662;23.316;2023-05-08T00:47:12;94599.19;;;12.23;98.87
35778;BME280;21899;42.662;23.316;2023-05-08T00:49:37;94600.72;;;12.24;98.78
35778;BME280;21899;42.662;23.316;2023-05-08T00:52:03;94604.94;;;12.22;99.06
35778;BME280;21899;42.662;23.316;2023-05-08T00:54:33;94608.00;;;12.20;99.23
35778;BME280;21899;42.662;23.316;2023-05-08T00:56:59;94598.06;;;12.14;100.00
35778;BME280;21899;42.662;23.316;2023-05-08T00:59:25;94604.59;;;12.13;100.00
35778;BME280;21899;42.662;23.316;2023-05-08T01:01:51;94611.88;;;12.16;100.00
35778;BME280;21899;42.662;23.316;2023-05-08T01:04:20;94611.88;;;12.16;100.00
35778;BME280;21899;42.662;23.316;2023-05-08T01:06:46;94618.41;;;12.11;100.00
35778;BME280;21899;42.662;23.316;2023-05-08T01:09:11;94623.00;;;12.11;100.00
35778;BME280;21899;42.662;23.316;2023-05-08T01:11:45;94613.44;;;12.03;100.00
35778;BME280;21899;42.662;23.316;2023-05-08T01:14:16;94612.66;;;12.06;100.00
35778;BME280;21899;42.662;23.316;2023-05-08T01:16:49;94617.66;;;12.00;100.00
35778;BME280;21899;42.662;23.316;2023-05-08T01:21:48;94611.16;;;11.94;100.00
35778;BME280;21899;42.662;23.316;2023-05-08T01:33:01;94617.31;;;11.84;100.00
35778;BME280;21899;42.662;23.316;2023-05-08T01:35:33;94605.06;;;11.72;100.00
35778;BME280;21899;42.662;23.316;2023-05-08T01:38:09;94606.59;;;11.73;100.00
35778;BME280;21899;42.662;23.316;2023-05-08T01:43:34;94611.22;;;11.73;100.00
35778;BME280;21899;42.662;23.316;2023-05-08T01:46:06;94604.31;;;11.65;100.00
35778;BME280;21899;42.662;23.316;2023-05-08T01:48:34;94603.91;;;11.63;100.00
35778;BME280;21899;42.662;23.316;2023-05-08T01:51:11;94606.59;;;11.63;100.00
35778;BME280;21899;42.662;23.316;2023-05-08T01:53:42;94590.13;;;11.54;100.00
35778;BME280;21899;42.662;23.316;2023-05-08T01:56:11;94602.38;;;11.58;100.00
35778;BME280;21899;42.662;23.316;2023-05-08T01:58:38;94603.91;;;11.63;100.00
35778;BME280;21899;42.662;23.316;2023-05-08T02:01:04;94602.75;;;11.57;100.00
35778;BME280;21899;42.662;23.316;2023-05-08T02:03:31;94609.28;;;11.63;100.00
35778;BME280;21899;42.662;23.316;2023-05-08T02:05:59;94600.06;;;11.57;100.00
35778;BME280;21899;42.662;23.316;2023-05-08T02:08:28;94590.13;;;11.50;100.00
35778;BME280;21899;42.662;23.316;2023-05-08T02:10:54;94601.63;;;11.51;100.00
35778;BME280;21899;42.662;23.316;2023-05-08T02:13:21;94601.63;;;11.51;100.00
35778;BME280;21899;42.662;23.316;2023-05-08T02:15:49;94602.38;;;11.55;100.00
35778;BME280;21899;42.662;23.316;2023-05-08T02:18:17;94608.50;;;11.55;100.00
35778;BME280;21899;42.662;23.316;2023-05-08T02:20:45;94614.63;;;11.56;100.00
35778;BME280;21899;42.662;23.316;2023-05-08T02:23:11;94610.44;;;11.58;100.00
35778;BME280;21899;42.662;23.316;2023-05-08T02:25:38;94610.78;;;11.57;100.00
35778;BME280;21899;42.662;23.316;2023-05-08T02:28:05;94594.34;;;11.44;100.00
35778;BME280;21899;42.662;23.316;2023-05-08T02:30:31;94606.59;;;11.49;100.00
35778;BME280;21899;42.662;23.316;2023-05-08T02:32:58;94610.03;;;11.53;100.00
35778;BME280;21899;42.662;23.316;2023-05-08T02:35:26;94611.19;;;11.55;100.00
35778;BME280;21899;42.662;23.316;2023-05-08T02:37:54;94608.13;;;11.53;100.00
35778;BME280;21899;42.662;23.316;2023-05-08T02:40:22;94598.53;;;11.52;100.00
35778;BME280;21899;42.662;23.316;2023-05-08T02:42:49;94598.94;;;11.54;100.00
35778;BME280;21899;42.662;23.316;2023-05-08T02:45:14;94609.28;;;11.59;100.00
35778;BME280;21899;42.662;23.316;2023-05-08T02:48:12;94599.31;;;11.56;100.00
35778;BME280;21899;42.662;23.316;2023-05-08T02:54:10;94616.94;;;11.61;100.00
35778;BME280;21899;42.662;23.316;2023-05-08T02:56:48;94606.97;;;11.58;100.00
35778;BME280;21899;42.662;23.316;2023-05-08T02:59:29;94618.47;;;11.65;100.00
35778;BME280;21899;42.662;23.316;2023-05-08T03:02:07;94620.75;;;11.56;100.00
35778;BME280;21899;42.662;23.316;2023-05-08T03:04:38;94607.75;;;11.48;100.00
35778;BME280;21899;42.662;23.316;2023-05-08T03:07:05;94616.91;;;11.54;100.00
35778;BME280;21899;42.662;23.316;2023-05-08T03:09:43;94607.75;;;11.55;100.00
35778;BME280;21899;42.662;23.316;2023-05-08T03:12:17;94621.53;;;11.50;100.00
35778;BME280;21899;42.662;23.316;2023-05-08T03:15:06;94617.69;;;11.54;100.00
35778;BME280;21899;42.662;23.316;2023-05-08T03:17:35;94621.53;;;11.64;100.00
35778;BME280;21899;42.662;23.316;2023-05-08T03:20:05;94624.56;;;11.59;100.00
35778;BME280;21899;42.662;23.316;2023-05-08T03:22:34;94631.88;;;11.58;100.00
35778;BME280;21899;42.662;23.316;2023-05-08T03:25:03;94623.81;;;11.62;100.00
35778;BME280;21899;42.662;23.316;2023-05-08T03:27:29;94617.69;;;11.58;100.00
35778;BME280;21899;42.662;23.316;2023-05-08T03:29:56;94628.03;;;11.63;100.00
35778;BME280;21899;42.662;23.316;2023-05-08T03:32:25;94630.75;;;11.70;100.00
35778;BME280;21899;42.662;23.316;2023-05-08T03:34:53;94631.88;;;11.76;100.00
35778;BME280;21899;42.662;23.316;2023-05-08T03:37:19;94626.88;;;11.85;100.00
35778;BME280;21899;42.662;23.316;2023-05-08T03:39:45;94631.84;;;11.90;100.00
35778;BME280;21899;42.662;23.316;2023-05-08T03:42:11;94624.56;;;11.87;99.35
35778;BME280;21899;42.662;23.316;2023-05-08T03:44:48;94622.28;;;11.93;98.13
35778;BME280;21899;42.662;23.316;2023-05-08T03:47:19;94625.34;;;11.98;98.39
35778;BME280;21899;42.662;23.316;2023-05-08T03:49:45;94621.09;;;12.04;98.71
35778;BME280;21899;42.662;23.316;2023-05-08T03:52:12;94630.25;;;12.21;96.66
35778;BME280;21899;42.662;23.316;2023-05-08T03:54:38;94629.84;;;12.29;95.98
35778;BME280;21899;42.662;23.316;2023-05-08T03:57:03;94642.81;;;12.48;93.63
35778;BME280;21899;42.662;23.316;2023-05-08T03:59:41;94637.44;;;12.45;91.08
35778;BME280;21899;42.662;23.316;2023-05-08T04:02:19;94636.31;;;12.49;87.85
35778;BME280;21899;42.662;23.316;2023-05-08T04:04:50;94634.44;;;12.39;86.72
35778;BME280;21899;42.662;23.316;2023-05-08T04:09:58;94629.78;;;12.43;86.70
35778;BME280;21899;42.662;23.316;2023-05-08T04:15:20;94644.38;;;12.49;86.18
35778;BME280;21899;42.662;23.316;2023-05-08T04:17:53;94640.50;;;12.54;85.67
35778;BME280;21899;42.662;23.316;2023-05-08T04:20:21;94647.34;;;12.69;85.26
35778;BME280;21899;42.662;23.316;2023-05-08T04:22:49;94648.41;;;12.89;83.43
35778;BME280;21899;42.662;23.316;2023-05-08T04:25:17;94639.56;;;12.88;82.67
35778;BME280;21899;42.662;23.316;2023-05-08T04:27:44;94657.91;;;13.04;82.65
35778;BME280;21899;42.662;23.316;2023-05-08T04:30:10;94660.97;;;13.09;81.46
35778;BME280;21899;42.662;23.316;2023-05-08T04:32:37;94657.88;;;13.15;80.79
35778;BME280;21899;42.662;23.316;2023-05-08T04:35:03;94647.41;;;13.27;80.04
35778;BME280;21899;42.662;23.316;2023-05-08T04:37:29;94650.84;;;13.35;80.40
35778;BME280;21899;42.662;23.316;2023-05-08T04:39:58;94654.34;;;13.76;78.93
35778;BME280;21899;42.662;23.316;2023-05-08T04:42:25;94644.94;;;13.98;77.93
35778;BME280;21899;42.662;23.316;2023-05-08T04:44:51;94638.66;;;14.49;75.14
35778;BME280;21899;42.662;23.316;2023-05-08T04:47:17;94644.75;;;14.86;72.96
35778;BME280;21899;42.662;23.316;2023-05-08T04:49:43;94640.41;;;15.22;70.05
35778;BME280;21899;42.662;23.316;2023-05-08T04:52:08;94630.84;;;15.44;67.87
35778;BME280;21899;42.662;23.316;2023-05-08T04:54:33;94647.19;;;15.60;66.73
35778;BME280;21899;42.662;23.316;2023-05-08T04:56:59;94632.94;;;15.83;65.94
35778;BME280;21899;42.662;23.316;2023-05-08T04:59:24;94639.41;;;16.32;64.40
35778;BME280;21899;42.662;23.316;2023-05-08T05:01:50;94633.72;;;16.69;61.96
35778;BME280;21899;42.662;23.316;2023-05-08T05:04:15;94627.88;;;16.90;60.66
35778;BME280;21899;42.662;23.316;2023-05-08T05:06:41;94633.47;;;16.79;59.25
35778;BME280;21899;42.662;23.316;2023-05-08T05:09:06;94630.72;;;16.83;59.48
35778;BME280;21899;42.662;23.316;2023-05-08T05:11:32;94632.38;;;16.77;59.17
35778;BME280;21899;42.662;23.316;2023-05-08T05:13:57;94623.66;;;16.50;60.57
35778;BME280;21899;42.662;23.316;2023-05-08T05:16:23;94624.34;;;16.54;60.33
35778;BME280;21899;42.662;23.316;2023-05-08T05:18:48;94619.22;;;16.59;59.82
35778;BME280;21899;42.662;23.316;2023-05-08T05:21:14;94633.13;;;16.58;59.21
35778;BME280;21899;42.662;23.316;2023-05-08T05:23:39;94635.16;;;16.54;58.87
35778;BME280;21899;42.662;23.316;2023-05-08T05:26:05;94626.22;;;16.57;59.72
35778;BME280;21899;42.662;23.316;2023-05-08T05:28:31;94622.13;;;16.49;59.21
35778;BME280;21899;42.662;23.316;2023-05-08T05:30:56;94625.72;;;16.81;58.45
35778;BME280;21899;42.662;23.316;2023-05-08T05:33:22;94632.44;;;16.93;57.46
35778;BME280;21899;42.662;23.316;2023-05-08T05:35:47;94628.59;;;17.46;56.18
35778;BME280;21899;42.662;23.316;2023-05-08T05:38:12;94625.97;;;17.74;54.84
35778;BME280;21899;42.662;23.316;2023-05-08T05:40:38;94622.44;;;17.77;53.49
35778;BME280;21899;42.662;23.316;2023-05-08T05:43:03;94635.69;;;17.56;54.08
35778;BME280;21899;42.662;23.316;2023-05-08T05:45:29;94628.84;;;17.67;54.27
35778;BME280;21899;42.662;23.316;2023-05-08T05:47:54;94629.63;;;17.84;53.60
35778;BME280;21899;42.662;23.316;2023-05-08T05:50:20;94622.56;;;18.02;54.09
35778;BME280;21899;42.662;23.316;2023-05-08T05:52:46;94632.81;;;17.95;53.12
35778;BME280;21899;42.662;23.316;2023-05-08T05:55:12;94624.38;;;17.77;53.58
35778;BME280;21899;42.662;23.316;2023-05-08T05:57:37;94620.38;;;17.97;52.97
35778;BME280;21899;42.662;23.316;2023-05-08T06:00:03;94619.69;;;17.93;52.55
35778;BME280;21899;42.662;23.316;2023-05-08T06:02:30;94617.34;;;17.95;53.18
35778;BME280;21899;42.662;23.316;2023-05-08T06:05:00;94619.38;;;17.75;53.10
35778;BME280;21899;42.662;23.316;2023-05-08T06:07:26;94611.25;;;17.59;54.36
35778;BME280;21899;42.662;23.316;2023-05-08T06:09:51;94610.50;;;17.91;53.72
35778;BME280;21899;42.662;23.316;2023-05-08T06:12:17;94606.50;;;17.95;52.94
35778;BME280;21899;42.662;23.316;2023-05-08T06:14:43;94612.59;;;17.99;53.21
35778;BME280;21899;42.662;23.316;2023-05-08T06:17:08;94618.59;;;18.07;53.73
35778;BME280;21899;42.662;23.316;2023-05-08T06:19:34;94610.91;;;18.34;52.73
35778;BME280;21899;42.662;23.316;2023-05-08T06:21:59;94614.16;;;18.58;52.17
35778;BME280;21899;42.662;23.316;2023-05-08T06:24:25;94611.88;;;18.56;50.86
35778;BME280;21899;42.662;23.316;2023-05-08T06:26:50;94604.06;;;18.30;51.61
35778;BME280;21899;42.662;23.316;2023-05-08T06:29:16;94620.31;;;18.30;51.98
35778;BME280;21899;42.662;23.316;2023-05-08T06:31:41;94606.28;;;18.18;52.04
35778;BME280;21899;42.662;23.316;2023-05-08T06:34:06;94608.19;;;18.05;52.40
35778;BME280;21899;42.662;23.316;2023-05-08T06:36:32;94610.88;;;18.05;52.53
35778;BME280;21899;42.662;23.316;2023-05-08T06:38:57;94616.69;;;18.20;52.87
35778;BME280;21899;42.662;23.316;2023-05-08T06:41:23;94616.34;;;18.34;52.08
35778;BME280;21899;42.662;23.316;2023-05-08T06:43:48;94618.03;;;18.44;51.82
35778;BME280;21899;42.662;23.316;2023-05-08T06:46:14;94614.50;;;18.60;51.47
35778;BME280;21899;42.662;23.316;2023-05-08T06:48:39;94602.66;;;18.54;51.77
35778;BME280;21899;42.662;23.316;2023-05-08T06:51:05;94613.53;;;18.66;51.21
35778;BME280;21899;42.662;23.316;2023-05-08T06:53:30;94614.53;;;18.72;51.02
35778;BME280;21899;42.662;23.316;2023-05-08T06:55:56;94613.25;;;18.77;51.56
35778;BME280;21899;42.662;23.316;2023-05-08T06:58:23;94602.72;;;18.79;50.52
35778;BME280;21899;42.662;23.316;2023-05-08T07:00:48;94611.94;;;18.81;51.00
35778;BME280;21899;42.662;23.316;2023-05-08T07:03:14;94617.63;;;18.87;51.07
35778;BME280;21899;42.662;23.316;2023-05-08T07:05:39;94619.97;;;18.72;50.99
35778;BME280;21899;42.662;23.316;2023-05-08T07:08:05;94623.16;;;18.55;51.71
35778;BME280;21899;42.662;23.316;2023-05-08T07:10:30;94614.56;;;18.44;52.04
35778;BME280;21899;42.662;23.316;2023-05-08T07:12:56;94622.16;;;18.49;52.09
35778;BME280;21899;42.662;23.316;2023-05-08T07:15:21;94622.34;;;18.42;52.49
35778;BME280;21899;42.662;23.316;2023-05-08T07:17:47;94625.47;;;18.69;51.82
35778;BME280;21899;42.662;23.316;2023-05-08T07:20:12;94627.84;;;18.95;51.39
35778;BME280;21899;42.662;23.316;2023-05-08T07:22:37;94626.34;;;19.19;51.07
35778;BME280;21899;42.662;23.316;2023-05-08T07:25:03;94624.44;;;19.45;49.72
35778;BME280;21899;42.662;23.316;2023-05-08T07:27:29;94612.50;;;19.30;49.52
35778;BME280;21899;42.662;23.316;2023-05-08T07:29:54;94624.97;;;19.40;49.02
35778;BME280;21899;42.662;23.316;2023-05-08T07:32:22;94622.69;;;19.38;49.57
35778;BME280;21899;42.662;23.316;2023-05-08T07:34:48;94621.09;;;19.12;50.59
35778;BME280;21899;42.662;23.316;2023-05-08T07:37:13;94628.44;;;19.40;51.01
35778;BME280;21899;42.662;23.316;2023-05-08T07:39:39;94629.53;;;19.43;49.71
35778;BME280;21899;42.662;23.316;2023-05-08T07:42:04;94616.91;;;19.49;49.55
35778;BME280;21899;42.662;23.316;2023-05-08T07:44:31;94625.19;;;19.33;49.47
35778;BME280;21899;42.662;23.316;2023-05-08T07:46:57;94629.97;;;19.41;49.59
35778;BME280;21899;42.662;23.316;2023-05-08T07:49:23;94630.25;;;19.18;49.73
35778;BME280;21899;42.662;23.316;2023-05-08T07:51:48;94633.03;;;19.02;50.52
35778;BME280;21899;42.662;23.316;2023-05-08T07:54:14;94630.44;;;18.99;50.65
35778;BME280;21899;42.662;23.316;2023-05-08T07:56:39;94632.91;;;18.93;50.79
35778;BME280;21899;42.662;23.316;2023-05-08T07:59:05;94641.91;;;19.31;49.47
35778;BME280;21899;42.662;23.316;2023-05-08T08:01:30;94639.31;;;19.53;48.84
35778;BME280;21899;42.662;23.316;2023-05-08T08:03:56;94633.97;;;19.75;47.93
35778;BME280;21899;42.662;23.316;2023-05-08T08:06:21;94634.06;;;19.84;47.87
35778;BME280;21899;42.662;23.316;2023-05-08T08:08:46;94629.72;;;19.86;47.84
35778;BME280;21899;42.662;23.316;2023-05-08T08:11:12;94634.44;;;20.07;47.24
35778;BME280;21899;42.662;23.316;2023-05-08T08:13:37;94624.53;;;20.13;47.45
35778;BME280;21899;42.662;23.316;2023-05-08T08:16:03;94638.03;;;20.29;47.77
35778;BME280;21899;42.662;23.316;2023-05-08T08:18:29;94642.53;;;20.66;46.89
35778;BME280;21899;42.662;23.316;2023-05-08T08:20:55;94638.50;;;20.93;46.18
35778;BME280;21899;42.662;23.316;2023-05-08T08:23:20;94634.34;;;21.01;45.35
35778;BME280;21899;42.662;23.316;2023-05-08T08:25:46;94632.16;;;21.17;45.00
35778;BME280;21899;42.662;23.316;2023-05-08T08:28:11;94630.38;;;21.54;44.51
35778;BME280;21899;42.662;23.316;2023-05-08T08:30:37;94630.69;;;21.56;44.67
35778;BME280;21899;42.662;23.316;2023-05-08T08:33:02;94628.06;;;21.13;46.20
35778;BME280;21899;42.662;23.316;2023-05-08T08:35:28;94628.56;;;21.20;47.01
35778;BME280;21899;42.662;23.316;2023-05-08T08:37:57;94614.28;;;21.38;46.81
35778;BME280;21899;42.662;23.316;2023-05-08T08:40:22;94606.00;;;21.50;46.57
35778;BME280;21899;42.662;23.316;2023-05-08T08:42:48;94602.63;;;21.77;46.34
35778;BME280;21899;42.662;23.316;2023-05-08T08:45:13;94598.16;;;22.01;45.65
35778;BME280;21899;42.662;23.316;2023-05-08T08:47:41;94604.94;;;21.48;46.75
35778;BME280;21899;42.662;23.316;2023-05-08T08:50:08;94605.81;;;21.05;47.99
35778;BME280;21899;42.662;23.316;2023-05-08T08:52:50;94600.97;;;20.88;48.79
35778;BME280;21899;42.662;23.316;2023-05-08T08:55:17;94597.13;;;20.76;49.27
35778;BME280;21899;42.662;23.316;2023-05-08T09:00:27;94591.78;;;20.94;48.65
35778;BME280;21899;42.662;23.316;2023-05-08T09:02:54;94584.16;;;21.02;48.26
35778;BME280;21899;42.662;23.316;2023-05-08T09:05:21;94585.28;;;21.13;48.29
35778;BME280;21899;42.662;23.316;2023-05-08T09:07:48;94575.63;;;20.91;49.15
35778;BME280;21899;42.662;23.316;2023-05-08T09:10:15;94566.38;;;20.66;49.60
35778;BME280;21899;42.662;23.316;2023-05-08T09:12:41;94564.91;;;20.74;50.32
35778;BME280;21899;42.662;23.316;2023-05-08T09:15:07;94573.47;;;20.86;49.83
35778;BME280;21899;42.662;23.316;2023-05-08T09:17:32;94564.59;;;20.72;50.00
35778;BME280;21899;42.662;23.316;2023-05-08T09:19:58;94564.22;;;20.83;49.93
35778;BME280;21899;42.662;23.316;2023-05-08T09:22:24;94560.28;;;20.84;49.50
35778;BME280;21899;42.662;23.316;2023-05-08T09:27:23;94541.19;;;20.75;49.88
35778;BME280;21899;42.662;23.316;2023-05-08T09:30:03;94536.06;;;20.99;48.96
35778;BME280;21899;42.662;23.316;2023-05-08T09:32:30;94536.72;;;21.12;49.19
35778;BME280;21899;42.662;23.316;2023-05-08T09:34:56;94532.91;;;21.40;47.58
35778;BME280;21899;42.662;23.316;2023-05-08T09:37:22;94535.00;;;21.36;47.79
35778;BME280;21899;42.662;23.316;2023-05-08T09:39:47;94544.53;;;21.40;47.55
35778;BME280;21899;42.662;23.316;2023-05-08T09:42:14;94559.25;;;21.52;47.27
35778;BME280;21899;42.662;23.316;2023-05-08T09:44:51;94571.59;;;21.35;47.88
35778;BME280;21899;42.662;23.316;2023-05-08T09:47:21;94568.22;;;21.22;48.12
35778;BME280;21899;42.662;23.316;2023-05-08T09:50:00;94580.34;;;21.30;49.29
35778;BME280;21899;42.662;23.316;2023-05-08T09:52:30;94567.84;;;21.11;49.45
35778;BME280;21899;42.662;23.316;2023-05-08T09:54:57;94567.22;;;21.37;49.53
35778;BME280;21899;42.662;23.316;2023-05-08T09:57:23;94568.63;;;21.51;49.00
35778;BME280;21899;42.662;23.316;2023-05-08T09:59:49;94564.28;;;21.62;48.69
35778;BME280;21899;42.662;23.316;2023-05-08T10:02:15;94567.13;;;21.59;48.92
35778;BME280;21899;42.662;23.316;2023-05-08T10:04:41;94566.31;;;21.80;47.53
35778;BME280;21899;42.662;23.316;2023-05-08T10:07:07;94558.16;;;22.07;47.39
35778;BME280;21899;42.662;23.316;2023-05-08T10:09:33;94566.50;;;22.04;46.79
35778;BME280;21899;42.662;23.316;2023-05-08T10:11:58;94562.72;;;22.01;47.03
35778;BME280;21899;42.662;23.316;2023-05-08T10:14:23;94559.06;;;21.95;47.18
35778;BME280;21899;42.662;23.316;2023-05-08T10:16:53;94551.97;;;22.16;46.70
35778;BME280;21899;42.662;23.316;2023-05-08T10:19:20;94545.91;;;22.21;46.71
35778;BME280;21899;42.662;23.316;2023-05-08T10:21:51;94549.09;;;22.19;47.05
35778;BME280;21899;42.662;23.316;2023-05-08T10:24:19;94546.97;;;22.59;45.96
35778;BME280;21899;42.662;23.316;2023-05-08T10:27:02;94537.09;;;23.21;44.75
35778;BME280;21899;42.662;23.316;2023-05-08T10:29:53;94537.97;;;22.86;44.51
35778;BME280;21899;42.662;23.316;2023-05-08T10:32:21;94533.31;;;22.68;45.68
35778;BME280;21899;42.662;23.316;2023-05-08T10:34:52;94536.97;;;22.38;46.76
35778;BME280;21899;42.662;23.316;2023-05-08T10:37:20;94536.06;;;22.23;47.57
35778;BME280;21899;42.662;23.316;2023-05-08T10:39:46;94527.88;;;21.96;47.60
35778;BME280;21899;42.662;23.316;2023-05-08T10:42:13;94517.38;;;21.58;48.88
35778;BME280;21899;42.662;23.316;2023-05-08T10:44:39;94525.03;;;21.42;49.76
35778;BME280;21899;42.662;23.316;2023-05-08T10:47:21;94531.84;;;21.46;50.32
35778;BME280;21899;42.662;23.316;2023-05-08T10:50:21;94520.16;;;21.76;49.86
35778;BME280;21899;42.662;23.316;2023-05-08T10:52:56;94516.22;;;21.95;48.85
35778;BME280;21899;42.662;23.316;2023-05-08T10:55:30;94517.91;;;21.93;49.57
35778;BME280;21899;42.662;23.316;2023-05-08T10:58:02;94511.06;;;21.88;50.20
35778;BME280;21899;42.662;23.316;2023-05-08T11:03:16;94506.78;;;21.69;50.92
35778;BME280;21899;42.662;23.316;2023-05-08T11:05:46;94502.03;;;21.43;50.73
35778;BME280;21899;42.662;23.316;2023-05-08T11:08:17;94502.84;;;21.04;51.55
35778;BME280;21899;42.662;23.316;2023-05-08T11:13:37;94495.00;;;20.84;53.55
35778;BME280;21899;42.662;23.316;2023-05-08T11:16:03;94494.38;;;20.80;53.59
35778;BME280;21899;42.662;23.316;2023-05-08T11:18:31;94493.94;;;20.82;54.32
35778;BME280;21899;42.662;23.316;2023-05-08T11:21:02;94480.22;;;20.94;53.32
35778;BME280;21899;42.662;23.316;2023-05-08T11:23:31;94468.66;;;21.03;52.59
35778;BME280;21899;42.662;23.316;2023-05-08T11:26:02;94474.88;;;21.12;51.55
35778;BME280;21899;42.662;23.316;2023-05-08T11:28:33;94466.38;;;21.01;51.86
35778;BME280;21899;42.662;23.316;2023-05-08T11:31:02;94468.69;;;21.21;51.79
35778;BME280;21899;42.662;23.316;2023-05-08T11:33:30;94466.16;;;21.26;52.11
35778;BME280;21899;42.662;23.316;2023-05-08T11:38:23;94459.22;;;21.34;49.65
35778;BME280;21899;42.662;23.316;2023-05-08T11:41:02;94452.41;;;21.39;48.58
35778;BME280;21899;42.662;23.316;2023-05-08T11:43:41;94427.28;;;21.44;48.86
35778;BME280;21899;42.662;23.316;2023-05-08T11:46:14;94443.97;;;21.55;49.02
35778;BME280;21899;42.662;23.316;2023-05-08T11:48:41;94444.25;;;21.48;47.99
35778;BME280;21899;42.662;23.316;2023-05-08T11:51:06;94431.41;;;21.57;47.74
35778;BME280;21899;42.662;23.316;2023-05-08T11:53:34;94436.69;;;21.61;47.44
35778;BME280;21899;42.662;23.316;2023-05-08T11:56:01;94429.75;;;21.60;47.42
35778;BME280;21899;42.662;23.316;2023-05-08T11:58:27;94412.34;;;21.75;47.50
35778;BME280;21899;42.662;23.316;2023-05-08T12:00:53;94416.69;;;22.18;46.02
35778;BME280;21899;42.662;23.316;2023-05-08T12:03:21;94421.34;;;22.54;43.70
35778;BME280;21899;42.662;23.316;2023-05-08T12:05:48;94425.88;;;22.57;42.74
35778;BME280;21899;42.662;23.316;2023-05-08T12:08:15;94411.09;;;22.81;42.78
35778;BME280;21899;42.662;23.316;2023-05-08T12:10:56;94412.41;;;22.95;42.47
35778;BME280;21899;42.662;23.316;2023-05-08T12:13:24;94419.22;;;23.23;42.23
35778;BME280;21899;42.662;23.316;2023-05-08T12:15:55;94415.72;;;23.32;41.29
35778;BME280;21899;42.662;23.316;2023-05-08T12:18:22;94417.88;;;23.18;41.88
35778;BME280;21899;42.662;23.316;2023-05-08T12:20:52;94407.31;;;23.11;42.75
35778;BME280;21899;42.662;23.316;2023-05-08T12:23:18;94409.56;;;23.13;42.58
35778;BME280;21899;42.662;23.316;2023-05-08T12:25:43;94407.56;;;22.90;42.72
35778;BME280;21899;42.662;23.316;2023-05-08T12:28:09;94408.91;;;22.94;43.38
35778;BME280;21899;42.662;23.316;2023-05-08T12:30:35;94409.38;;;22.93;43.27
35778;BME280;21899;42.662;23.316;2023-05-08T12:33:02;94400.16;;;23.14;42.82
35778;BME280;21899;42.662;23.316;2023-05-08T12:35:29;94407.59;;;23.13;42.21
35778;BME280;21899;42.662;23.316;2023-05-08T12:38:00;94404.13;;;22.80;42.58
35778;BME280;21899;42.662;23.316;2023-05-08T12:40:31;94400.38;;;22.69;42.97
35778;BME280;21899;42.662;23.316;2023-05-08T12:42:59;94402.13;;;22.81;43.32
35778;BME280;21899;42.662;23.316;2023-05-08T12:45:31;94405.66;;;23.05;41.68
35778;BME280;21899;42.662;23.316;2023-05-08T12:48:02;94403.13;;;23.25;41.44
35778;BME280;21899;42.662;23.316;2023-05-08T12:50:28;94406.81;;;23.46;41.42
35778;BME280;21899;42.662;23.316;2023-05-08T12:53:02;94402.78;;;23.56;41.49
35778;BME280;21899;42.662;23.316;2023-05-08T12:55:30;94403.59;;;23.47;41.91
35778;BME280;21899;42.662;23.316;2023-05-08T12:58:11;94406.06;;;23.45;41.07
35778;BME280;21899;42.662;23.316;2023-05-08T13:00:45;94403.38;;;23.36;41.13
35778;BME280;21899;42.662;23.316;2023-05-08T13:03:13;94393.66;;;23.59;41.00
35778;BME280;21899;42.662;23.316;2023-05-08T13:05:43;94384.00;;;23.87;40.57
35778;BME280;21899;42.662;23.316;2023-05-08T13:08:10;94379.53;;;23.98;40.61
35778;BME280;21899;42.662;23.316;2023-05-08T13:10:52;94385.75;;;23.99;41.08
35778;BME280;21899;42.662;23.316;2023-05-08T13:13:23;94398.38;;;23.96;41.29
35778;BME280;21899;42.662;23.316;2023-05-08T13:15:51;94411.69;;;22.85;45.15
35778;BME280;21899;42.662;23.316;2023-05-08T13:18:17;94412.59;;;22.32;48.31
35778;BME280;21899;42.662;23.316;2023-05-08T13:20:43;94424.28;;;21.42;51.86
35778;BME280;21899;42.662;23.316;2023-05-08T13:23:10;94423.25;;;20.91;53.83
35778;BME280;21899;42.662;23.316;2023-05-08T13:25:36;94418.44;;;20.33;57.07
35778;BME280;21899;42.662;23.316;2023-05-08T13:28:03;94428.88;;;20.13;59.39